createdAt,value
2018-08-06T00:00:40.689Z,20.4
2018-08-06T00:01:41.821Z,20.4
2018-08-06T00:02:43.189Z,20.4
2018-08-06T00:03:44.329Z,20.7
2018-08-06T00:04:45.549Z,21.2
2018-08-06T00:05:46.689Z,21.5
2018-08-06T00:06:49.090Z,21.6
2018-08-06T00:07:50.226Z,21.5
2018-08-06T00:08:51.360Z,21
2018-08-06T00:09:52.519Z,20.6
2018-08-06T00:10:53.906Z,20.3
2018-08-06T00:11:55.281Z,20
2018-08-06T00:12:59.168Z,19.9
2018-08-06T00:14:00.305Z,19.7
2018-08-06T00:15:01.690Z,19.8
2018-08-06T00:16:02.897Z,19.8
2018-08-06T00:17:04.305Z,19.9
2018-08-06T00:18:05.530Z,20.4
2018-08-06T00:19:06.862Z,20.9
2018-08-06T00:20:08.369Z,21.2
2018-08-06T00:21:09.496Z,21.3
2018-08-06T00:22:10.701Z,21.4
2018-08-06T00:23:11.858Z,21
2018-08-06T00:24:13.030Z,20.6
2018-08-06T00:25:14.198Z,20.8
2018-08-06T00:26:15.498Z,21
2018-08-06T00:27:17.828Z,21.3
2018-08-06T00:28:18.960Z,21.4
2018-08-06T00:29:20.249Z,21.4
2018-08-06T00:30:21.417Z,21.4
2018-08-06T00:31:22.560Z,20.9
2018-08-06T00:32:24.692Z,20.7
2018-08-06T00:33:25.882Z,20.7
2018-08-06T00:34:27.141Z,20.8
2018-08-06T00:35:28.620Z,20.7
2018-08-06T00:36:33.327Z,20.2
2018-08-06T00:37:36.479Z,20.4
2018-08-06T00:38:37.633Z,20.7
2018-08-06T00:39:38.754Z,20.9
2018-08-06T00:40:39.929Z,21
2018-08-06T00:41:41.061Z,20.7
2018-08-06T00:42:42.232Z,20.6
2018-08-06T00:43:43.397Z,20.5
2018-08-06T00:44:44.739Z,20.6
2018-08-06T00:45:45.891Z,20.9
2018-08-06T00:46:47.257Z,21.1
2018-08-06T00:47:48.400Z,21.2
2018-08-06T00:48:49.545Z,21.3
2018-08-06T00:49:50.695Z,21.4
2018-08-06T00:50:51.875Z,21.4
2018-08-06T00:51:54.006Z,21.4
2018-08-06T00:52:56.154Z,21.4
2018-08-06T00:53:57.371Z,21.3
2018-08-06T00:54:58.491Z,21.4
2018-08-06T00:55:59.865Z,21.4
2018-08-06T00:57:01.002Z,21.3
2018-08-06T00:58:02.136Z,21.1
2018-08-06T00:59:03.381Z,20.7
2018-08-06T01:00:04.519Z,20.6
2018-08-06T01:01:05.736Z,20.7
2018-08-06T01:02:06.885Z,20
2018-08-06T01:03:08.376Z,19.3
2018-08-06T01:04:09.733Z,18.8
2018-08-06T01:05:10.856Z,18.9
2018-08-06T01:06:12.264Z,19.1
2018-08-06T01:07:14.765Z,19.3
2018-08-06T01:08:15.902Z,19.6
2018-08-06T01:09:17.254Z,19.7
2018-08-06T01:10:18.385Z,20.3
2018-08-06T01:11:19.596Z,20.6
2018-08-06T01:12:20.740Z,20.6
2018-08-06T01:13:21.953Z,20.1
2018-08-06T01:14:25.886Z,19.7
2018-08-06T01:15:27.051Z,20
2018-08-06T01:16:28.233Z,20.4
2018-08-06T01:17:29.348Z,20.6
2018-08-06T01:18:30.511Z,20.3
2018-08-06T01:19:31.677Z,20.3
2018-08-06T01:20:33.692Z,20.5
2018-08-06T01:21:35.723Z,20.6
2018-08-06T01:22:37.143Z,20.7
2018-08-06T01:23:38.276Z,20.8
2018-08-06T01:24:39.423Z,20.8
2018-08-06T01:25:40.551Z,20.9
2018-08-06T01:26:41.919Z,20.9
2018-08-06T01:27:43.333Z,20.9
2018-08-06T01:28:44.466Z,20.6
2018-08-06T01:29:46.930Z,20.6
2018-08-06T01:30:48.305Z,20.6
2018-08-06T01:31:52.389Z,20.5
2018-08-06T01:32:53.535Z,20.6
2018-08-06T01:33:55.213Z,20.7
2018-08-06T01:34:56.374Z,20.8
2018-08-06T01:35:57.503Z,20.8
2018-08-06T01:36:58.686Z,20.6
2018-08-06T01:37:59.813Z,20.4
2018-08-06T01:39:00.937Z,20.6
2018-08-06T01:40:02.098Z,20.7
2018-08-06T01:41:03.257Z,20.7
2018-08-06T01:42:04.451Z,20.6
2018-08-06T01:43:05.586Z,20.6
2018-08-06T01:44:06.712Z,20.7
2018-08-06T01:45:07.860Z,20.5
2018-08-06T01:46:09.000Z,20.6
2018-08-06T01:47:10.258Z,20.5
2018-08-06T01:48:11.476Z,20.7
2018-08-06T01:49:12.628Z,20.8
2018-08-06T01:50:13.798Z,20.6
2018-08-06T01:51:16.039Z,20.3
2018-08-06T01:52:17.728Z,20.1
2018-08-06T01:53:18.872Z,19.9
2018-08-06T01:54:20.027Z,19.6
2018-08-06T01:55:21.192Z,19.6
2018-08-06T01:56:22.353Z,19.6
2018-08-06T01:57:23.536Z,19.4
2018-08-06T01:58:24.685Z,19.3
2018-08-06T01:59:25.840Z,19.2
2018-08-06T02:00:29.013Z,19.3
2018-08-06T02:01:30.161Z,19.4
2018-08-06T02:02:31.320Z,19.5
2018-08-06T02:03:32.449Z,19.7
2018-08-06T02:04:33.624Z,19.9
2018-08-06T02:05:34.983Z,20.1
2018-08-06T02:06:36.122Z,20.3
2018-08-06T02:07:37.521Z,20.4
2018-08-06T02:08:38.817Z,20.3
2018-08-06T02:09:39.982Z,20.3
2018-08-06T02:10:41.126Z,20.2
2018-08-06T02:11:42.270Z,20.3
2018-08-06T02:12:43.732Z,20.4
2018-08-06T02:13:44.963Z,20.4
2018-08-06T02:14:46.086Z,19.9
2018-08-06T02:15:47.233Z,19.5
2018-08-06T02:16:48.386Z,19.2
2018-08-06T02:17:52.052Z,19.2
2018-08-06T02:18:53.482Z,19
2018-08-06T02:19:54.645Z,19.4
2018-08-06T02:20:55.797Z,19.6
2018-08-06T02:21:56.940Z,19.4
2018-08-06T02:22:58.114Z,19.6
2018-08-06T02:23:59.273Z,19.8
2018-08-06T02:25:00.403Z,19.7
2018-08-06T02:26:01.645Z,19.6
2018-08-06T02:27:02.821Z,19.7
2018-08-06T02:28:11.814Z,19.3
2018-08-06T02:29:13.182Z,19.2
2018-08-06T02:30:14.319Z,19.5
2018-08-06T02:31:15.514Z,19.8
2018-08-06T02:32:16.676Z,20
2018-08-06T02:33:17.861Z,20.1
2018-08-06T02:34:19.051Z,20
2018-08-06T02:35:20.216Z,20.1
2018-08-06T02:36:21.530Z,19.9
2018-08-06T02:37:22.805Z,19.9
2018-08-06T02:38:23.998Z,20
2018-08-06T02:39:25.131Z,20.1
2018-08-06T02:40:26.255Z,20.1
2018-08-06T02:41:27.405Z,20.1
2018-08-06T02:42:28.533Z,20.1
2018-08-06T02:43:29.705Z,20.1
2018-08-06T02:44:30.829Z,20.1
2018-08-06T02:45:31.953Z,20
2018-08-06T02:46:33.133Z,20
2018-08-06T02:47:37.623Z,20
2018-08-06T02:48:39.158Z,20
2018-08-06T02:49:40.291Z,20
2018-08-06T02:50:41.457Z,19.9
2018-08-06T02:51:42.605Z,20
2018-08-06T02:52:43.764Z,20
2018-08-06T02:53:45.022Z,20
2018-08-06T02:54:46.156Z,20
2018-08-06T02:55:47.551Z,20.1
2018-08-06T02:56:48.677Z,20.1
2018-08-06T02:57:49.819Z,20.1
2018-08-06T02:58:50.989Z,20
2018-08-06T02:59:52.128Z,20
2018-08-06T03:00:53.292Z,20
2018-08-06T03:01:54.448Z,20
2018-08-06T03:02:55.601Z,20
2018-08-06T03:03:56.773Z,20
2018-08-06T03:04:57.945Z,20
2018-08-06T03:05:59.108Z,20
2018-08-06T03:07:00.265Z,20
2018-08-06T03:08:01.413Z,20
2018-08-06T03:09:02.639Z,20
2018-08-06T03:10:03.842Z,19.8
2018-08-06T03:11:05.197Z,19.6
2018-08-06T03:12:09.293Z,19.6
2018-08-06T03:13:10.458Z,19.8
2018-08-06T03:14:11.644Z,19.7
2018-08-06T03:15:12.810Z,19.4
2018-08-06T03:16:13.962Z,19.2
2018-08-06T03:17:15.110Z,18.9
2018-08-06T03:18:16.256Z,18.8
2018-08-06T03:19:17.429Z,18.8
2018-08-06T03:20:18.592Z,19
2018-08-06T03:21:19.953Z,18.7
2018-08-06T03:22:21.094Z,18.7
2018-08-06T03:23:22.272Z,18.5
2018-08-06T03:24:23.908Z,18.3
2018-08-06T03:25:25.090Z,18.4
2018-08-06T03:26:26.241Z,18.5
2018-08-06T03:27:27.453Z,18.7
2018-08-06T03:28:28.573Z,18.9
2018-08-06T03:29:29.743Z,19
2018-08-06T03:30:30.887Z,19
2018-08-06T03:31:32.021Z,19.3
2018-08-06T03:32:33.141Z,19.4
2018-08-06T03:33:34.343Z,19.1
2018-08-06T03:34:35.509Z,18.8
2018-08-06T03:35:36.636Z,19
2018-08-06T03:36:37.773Z,19.3
2018-08-06T03:37:38.948Z,19.4
2018-08-06T03:38:40.080Z,19.2
2018-08-06T03:39:41.292Z,18.8
2018-08-06T03:40:42.460Z,18.6
2018-08-06T03:41:43.601Z,18.4
2018-08-06T03:42:44.735Z,18.1
2018-08-06T03:43:46.978Z,17.9
2018-08-06T03:44:48.161Z,18
2018-08-06T03:45:49.289Z,18.5
2018-08-06T03:46:50.453Z,18.8
2018-08-06T03:47:51.647Z,19.1
2018-08-06T03:48:52.777Z,19.1
2018-08-06T03:49:53.971Z,18.9
2018-08-06T03:50:55.161Z,18.9
2018-08-06T03:51:56.292Z,19
2018-08-06T03:52:57.441Z,18.9
2018-08-06T03:53:58.589Z,18.6
2018-08-06T03:54:59.810Z,18.8
2018-08-06T03:56:00.976Z,19
2018-08-06T03:57:02.133Z,18.9
2018-08-06T03:58:03.323Z,18.4
2018-08-06T03:59:04.483Z,18.3
2018-08-06T04:00:05.697Z,18.4
2018-08-06T04:01:06.842Z,18.6
2018-08-06T04:02:08.015Z,18.7
2018-08-06T04:03:09.201Z,18.6
2018-08-06T04:04:10.359Z,18.7
2018-08-06T04:05:11.561Z,18.9
2018-08-06T04:06:12.686Z,19
2018-08-06T04:07:13.917Z,18.9
2018-08-06T04:08:15.090Z,18.9
2018-08-06T04:09:16.234Z,18.7
2018-08-06T04:10:17.437Z,18.4
2018-08-06T04:11:18.584Z,18.3
2018-08-06T04:12:19.771Z,18.4
2018-08-06T04:13:20.926Z,18.5
2018-08-06T04:14:22.092Z,18.7
2018-08-06T04:15:23.295Z,18.7
2018-08-06T04:16:24.469Z,18.9
2018-08-06T04:17:25.625Z,19.1
2018-08-06T04:18:26.781Z,19.1
2018-08-06T04:19:27.945Z,19.2
2018-08-06T04:20:29.097Z,19.1
2018-08-06T04:21:30.296Z,19.1
2018-08-06T04:22:31.428Z,19.1
2018-08-06T04:23:32.593Z,18.7
2018-08-06T04:24:33.765Z,18.5
2018-08-06T04:25:35.199Z,18.5
2018-08-06T04:26:36.332Z,18.6
2018-08-06T04:27:37.510Z,18.8
2018-08-06T04:28:38.637Z,18.8
2018-08-06T04:29:39.787Z,19
2018-08-06T04:30:40.948Z,18.9
2018-08-06T04:31:42.137Z,18.8
2018-08-06T04:32:44.442Z,18.9
2018-08-06T04:33:45.565Z,19
2018-08-06T04:34:46.758Z,19
2018-08-06T04:35:47.949Z,19.1
2018-08-06T04:36:49.102Z,19.2
2018-08-06T04:37:50.309Z,19.4
2018-08-06T04:38:51.458Z,19.5
2018-08-06T04:39:52.603Z,19.6
2018-08-06T04:40:53.813Z,19.8
2018-08-06T04:41:57.818Z,19.9
2018-08-06T04:42:58.995Z,20
2018-08-06T04:44:00.150Z,20.1
2018-08-06T04:45:01.360Z,20.2
2018-08-06T04:46:02.689Z,20.4
2018-08-06T04:47:03.845Z,20.4
2018-08-06T04:48:04.976Z,20.5
2018-08-06T04:49:06.117Z,20.7
2018-08-06T04:50:07.260Z,20.7
2018-08-06T04:51:08.425Z,20.7
2018-08-06T04:52:09.560Z,20.8
2018-08-06T04:53:10.696Z,20.8
2018-08-06T04:54:11.846Z,20.9
2018-08-06T04:55:12.979Z,20.8
2018-08-06T04:56:14.390Z,20.9
2018-08-06T04:57:17.144Z,21.4
2018-08-06T04:58:18.396Z,21.6
2018-08-06T05:00:39.412Z,22.2
2018-08-06T05:01:57.558Z,22.4
2018-08-06T05:03:03.823Z,22
2018-08-06T05:04:12.447Z,21.8
2018-08-06T05:05:18.488Z,21.8
2018-08-06T05:06:22.101Z,22.1
2018-08-06T05:07:23.300Z,22
2018-08-06T05:08:26.097Z,22
2018-08-06T05:09:27.383Z,22
2018-08-06T05:10:28.825Z,22
2018-08-06T05:11:32.964Z,22.3
2018-08-06T05:12:34.211Z,22.2
2018-08-06T05:13:35.713Z,22.1
2018-08-06T05:14:37.188Z,22.2
2018-08-06T05:15:38.382Z,22.2
2018-08-06T05:16:39.577Z,22.3
2018-08-06T05:17:40.883Z,22.3
2018-08-06T05:18:42.062Z,22.4
2018-08-06T05:19:43.234Z,22.5
2018-08-06T05:20:44.444Z,22.5
2018-08-06T05:21:45.624Z,22.6
2018-08-06T05:22:46.856Z,22.2
2018-08-06T05:23:48.031Z,22
2018-08-06T05:24:49.239Z,21.8
2018-08-06T05:25:50.726Z,21.8
2018-08-06T05:26:51.907Z,21.8
2018-08-06T05:27:53.731Z,21.9
2018-08-06T05:28:55.668Z,21.9
2018-08-06T05:29:59.330Z,21.7
2018-08-06T05:31:00.724Z,21.9
2018-08-06T05:32:02.382Z,21.9
2018-08-06T05:33:04.190Z,21.9
2018-08-06T05:34:05.834Z,22
2018-08-06T05:35:07.090Z,22
2018-08-06T05:36:08.443Z,22
2018-08-06T05:37:09.748Z,22
2018-08-06T05:38:10.995Z,22.1
2018-08-06T05:39:12.161Z,22.2
2018-08-06T05:40:13.341Z,22.3
2018-08-06T05:41:14.763Z,22.2
2018-08-06T05:42:16.420Z,22.2
2018-08-06T05:43:18.555Z,22.2
2018-08-06T05:44:20.133Z,22.2
2018-08-06T05:45:21.344Z,22.4
2018-08-06T05:46:22.577Z,22.5
2018-08-06T05:47:23.793Z,22.4
2018-08-06T05:48:25.164Z,22.5
2018-08-06T05:49:28.497Z,22.5
2018-08-06T05:50:29.721Z,22.6
2018-08-06T05:51:30.946Z,22.6
2018-08-06T05:52:35.036Z,22.7
2018-08-06T05:58:30.608Z,23.2
2018-08-06T05:59:31.783Z,23.4
2018-08-06T06:00:32.965Z,23.4
2018-08-06T06:01:34.636Z,23.4
2018-08-06T06:02:40.250Z,23.3
2018-08-06T06:03:41.450Z,23.1
2018-08-06T06:04:42.627Z,23.3
2018-08-06T06:05:43.833Z,23.3
2018-08-06T06:06:45.066Z,23.3
2018-08-06T06:07:46.285Z,23.3
2018-08-06T06:08:47.567Z,23.2
2018-08-06T06:09:50.973Z,23.5
2018-08-06T06:10:52.133Z,23.6
2018-08-06T06:11:54.394Z,23.5
2018-08-06T06:12:55.678Z,23.7
2018-08-06T06:13:56.898Z,23.7
2018-08-06T06:14:58.079Z,24.1
2018-08-06T06:15:59.283Z,24.1
2018-08-06T06:17:03.221Z,24.1
2018-08-06T06:18:07.600Z,24.5
2018-08-06T06:19:08.907Z,24.6
2018-08-06T06:20:10.107Z,24.4
2018-08-06T06:21:11.334Z,24.5
2018-08-06T06:22:12.534Z,24.5
2018-08-06T06:23:13.750Z,24.5
2018-08-06T06:24:17.302Z,24.5
2018-08-06T06:25:20.575Z,24.5
2018-08-06T06:26:24.336Z,24.4
2018-08-06T06:27:25.562Z,24.6
2018-08-06T06:28:26.799Z,24.9
2018-08-06T06:29:27.965Z,24.9
2018-08-06T06:30:29.154Z,25.2
2018-08-06T06:31:30.396Z,25.7
2018-08-06T06:32:31.566Z,27.1
2018-08-06T06:33:33.074Z,29
2018-08-06T06:34:34.278Z,27.9
2018-08-06T06:35:35.466Z,28
2018-08-06T06:36:36.657Z,27.8
2018-08-06T06:37:37.870Z,27.3
2018-08-06T06:38:46.006Z,26.9
2018-08-06T06:39:47.298Z,26.5
2018-08-06T06:40:51.587Z,26.7
2018-08-06T06:41:52.787Z,26.3
2018-08-06T06:42:53.994Z,25.9
2018-08-06T06:43:55.187Z,28.1
2018-08-06T06:44:56.353Z,27
2018-08-06T06:45:57.694Z,26.5
2018-08-06T06:46:58.872Z,26.5
2018-08-06T06:48:00.050Z,27.8
2018-08-06T06:49:01.664Z,27.1
2018-08-06T06:50:02.788Z,26.5
2018-08-06T06:51:04.363Z,26.3
2018-08-06T06:52:05.581Z,26.5
2018-08-06T06:53:06.933Z,26.6
2018-08-06T06:54:08.153Z,26.5
2018-08-06T06:55:09.330Z,28.3
2018-08-06T06:56:13.203Z,28.9
2018-08-06T06:57:14.539Z,29.4
2018-08-06T06:58:18.588Z,29.1
2018-08-06T06:59:19.798Z,29.4
2018-08-06T07:00:23.502Z,29.6
2018-08-06T07:01:27.275Z,28.1
2018-08-06T07:02:28.612Z,27.2
2018-08-06T07:03:29.846Z,28.6
2018-08-06T07:04:31.055Z,30.5
2018-08-06T07:05:32.213Z,31.6
2018-08-06T07:06:33.394Z,31.3
2018-08-06T07:07:34.631Z,30.7
2018-08-06T07:08:35.794Z,31.1
2018-08-06T07:09:37.038Z,29.1
2018-08-06T07:10:38.263Z,28.1
2018-08-06T07:11:39.449Z,28.2
2018-08-06T07:12:40.651Z,27.5
2018-08-06T07:13:44.376Z,28
2018-08-06T07:14:45.819Z,27.4
2018-08-06T07:15:48.333Z,27.1
2018-08-06T07:16:50.774Z,29.3
2018-08-06T07:17:51.970Z,28.2
2018-08-06T07:18:53.373Z,27.6
2018-08-06T07:19:57.982Z,28.6
2018-08-06T07:20:59.180Z,30.1
2018-08-06T07:22:03.054Z,31.1
2018-08-06T07:23:07.113Z,30.3
2018-08-06T07:24:17.398Z,30.8
2018-08-06T07:25:18.618Z,30.4
2018-08-06T07:26:22.321Z,30.8
2018-08-06T07:27:25.242Z,31.9
2018-08-06T07:28:26.706Z,31.5
2018-08-06T07:29:30.467Z,31.6
2018-08-06T07:30:31.669Z,32
2018-08-06T07:31:43.530Z,31.1
2018-08-06T07:32:47.498Z,31.4
2018-08-06T07:33:51.199Z,31.6
2018-08-06T07:34:52.427Z,31.5
2018-08-06T07:35:55.745Z,32.2
2018-08-06T07:36:56.979Z,31.6
2018-08-06T07:37:58.178Z,31.3
2018-08-06T07:38:59.573Z,31.4
2018-08-06T07:40:00.838Z,31.1
2018-08-06T07:41:02.166Z,31
2018-08-06T07:42:03.361Z,31.5
2018-08-06T07:43:04.712Z,32.6
2018-08-06T07:44:05.868Z,31.3
2018-08-06T07:45:07.090Z,31.4
2018-08-06T07:46:08.325Z,30.9
2018-08-06T07:47:09.578Z,32
2018-08-06T07:48:10.998Z,31.5
2018-08-06T07:49:12.258Z,31.5
2018-08-06T07:50:14.611Z,31.1
2018-08-06T07:51:24.347Z,32.1
2018-08-06T07:52:25.802Z,31.8
2018-08-06T07:53:27.382Z,32.5
2018-08-06T07:54:32.862Z,33.5
2018-08-06T07:55:34.177Z,34
2018-08-06T07:56:37.203Z,32.7
2018-08-06T07:57:41.797Z,33.3
2018-08-06T07:58:43.401Z,33
2018-08-06T07:59:49.812Z,32.5
2018-08-06T08:00:51.242Z,31.3
2018-08-06T08:01:52.569Z,30.6
2018-08-06T08:02:53.972Z,30.3
2018-08-06T08:03:55.450Z,30
2018-08-06T08:04:57.065Z,31.7
2018-08-06T08:05:58.299Z,31.2
2018-08-06T08:06:59.554Z,30.5
2018-08-06T08:08:01.020Z,31.3
2018-08-06T08:09:02.467Z,31.5
2018-08-06T08:10:04.051Z,32.5
2018-08-06T08:11:06.388Z,31.7
2018-08-06T08:12:11.781Z,31.8
2018-08-06T08:13:13.894Z,32.3
2018-08-06T08:14:17.583Z,31.6
2018-08-06T08:15:19.266Z,31.1
2018-08-06T08:16:22.081Z,29.7
2018-08-06T08:17:23.570Z,30.1
2018-08-06T08:18:24.944Z,30.2
2018-08-06T08:19:27.976Z,29.7
2018-08-06T08:20:31.701Z,30.1
2018-08-06T08:21:33.054Z,30.1
2018-08-06T08:22:34.347Z,31.1
2018-08-06T08:23:40.731Z,30.9
2018-08-06T08:24:44.951Z,31.9
2018-08-06T08:25:48.432Z,32.8
2018-08-06T08:26:49.731Z,31.3
2018-08-06T08:27:53.808Z,30.6
2018-08-06T08:29:02.843Z,31.3
2018-08-06T08:30:12.038Z,31.1
2018-08-06T08:31:13.853Z,31.1
2018-08-06T08:32:18.987Z,31.9
2018-08-06T08:33:20.549Z,31.7
2018-08-06T08:34:24.298Z,32.1
2018-08-06T08:35:25.674Z,31.6
2018-08-06T08:36:27.188Z,31.2
2018-08-06T08:37:28.662Z,30.3
2018-08-06T08:38:30.680Z,30.2
2018-08-06T08:39:31.913Z,30.6
2018-08-06T08:40:33.224Z,31.4
2018-08-06T08:41:34.643Z,32
2018-08-06T08:42:35.924Z,31.9
2018-08-06T08:43:37.291Z,31.8
2018-08-06T08:44:38.545Z,31.5
2018-08-06T08:45:39.932Z,31
2018-08-06T08:46:49.925Z,31
2018-08-06T08:47:53.390Z,32.2
2018-08-06T08:48:55.055Z,32
2018-08-06T08:49:56.343Z,32.2
2018-08-06T08:50:57.735Z,31.8
2018-08-06T08:51:59.247Z,31.6
2018-08-06T08:53:00.512Z,31.3
2018-08-06T08:54:02.109Z,30.6
2018-08-06T08:55:03.300Z,30.6
2018-08-06T08:56:04.516Z,30.8
2018-08-06T08:57:08.144Z,30.7
2018-08-06T08:58:09.433Z,30.5
2018-08-06T08:59:10.681Z,30.2
2018-08-06T09:00:12.819Z,30.5
2018-08-06T09:01:15.123Z,31.1
2018-08-06T09:02:19.688Z,31.2
2018-08-06T09:03:25.754Z,31.1
2018-08-06T09:04:27.100Z,30.9
2018-08-06T09:05:28.310Z,31.1
2018-08-06T09:06:29.855Z,31.5
2018-08-06T09:07:33.311Z,31.3
2018-08-06T09:08:37.530Z,31.2
2018-08-06T09:09:38.868Z,30.4
2018-08-06T09:10:40.320Z,30.6
2018-08-06T09:11:41.545Z,31.1
2018-08-06T09:12:42.892Z,30.8
2018-08-06T09:13:45.211Z,30.9
2018-08-06T09:14:46.697Z,31
2018-08-06T09:15:48.165Z,31.3
2018-08-06T09:16:51.646Z,31.2
2018-08-06T09:17:53.115Z,31
2018-08-06T09:18:54.293Z,30.7
2018-08-06T09:19:55.745Z,30.5
2018-08-06T09:20:57.662Z,30.9
2018-08-06T09:21:59.019Z,31.4
2018-08-06T09:23:00.421Z,31
2018-08-06T09:24:02.677Z,30.8
2018-08-06T09:25:09.992Z,31.1
2018-08-06T09:26:11.451Z,31.2
2018-08-06T09:27:13.518Z,31.1
2018-08-06T09:28:15.473Z,31.2
2018-08-06T09:29:17.322Z,31
2018-08-06T09:30:18.829Z,31.3
2018-08-06T09:31:20.310Z,31.1
2018-08-06T09:32:24.130Z,30.6
2018-08-06T09:33:25.433Z,30.5
2018-08-06T09:34:26.682Z,31
2018-08-06T09:35:29.526Z,31
2018-08-06T09:36:30.882Z,31.5
2018-08-06T09:37:33.038Z,31.1
2018-08-06T09:38:44.044Z,30.9
2018-08-06T09:39:51.289Z,31.1
2018-08-06T09:40:52.658Z,30.9
2018-08-06T09:41:53.836Z,30.6
2018-08-06T09:42:55.022Z,30.1
2018-08-06T09:43:56.473Z,30.1
2018-08-06T09:45:05.422Z,30
2018-08-06T09:46:09.135Z,30.1
2018-08-06T09:47:10.959Z,30.1
2018-08-06T09:48:12.232Z,30.5
2018-08-06T09:49:16.194Z,30.6
2018-08-06T09:50:18.271Z,30
2018-08-06T09:51:19.549Z,29.8
2018-08-06T09:52:23.228Z,29.5
2018-08-06T09:53:24.681Z,29.5
2018-08-06T09:54:26.011Z,29.6
2018-08-06T09:55:30.422Z,29.6
2018-08-06T09:56:31.934Z,29.9
2018-08-06T09:57:35.570Z,29.8
2018-08-06T09:58:39.230Z,29.3
2018-08-06T09:59:43.187Z,29.5
2018-08-06T10:00:44.354Z,29.6
2018-08-06T10:01:45.610Z,29.7
2018-08-06T10:02:50.085Z,29.4
2018-08-06T10:03:55.171Z,29.5
2018-08-06T10:05:05.948Z,29.6
2018-08-06T10:06:16.131Z,29.7
2018-08-06T10:07:19.318Z,29.9
2018-08-06T10:08:22.592Z,29.8
2018-08-06T10:09:26.286Z,29.9
2018-08-06T10:13:38.270Z,29.1
2018-08-06T10:14:43.778Z,29.1
2018-08-06T10:15:45.528Z,29.3
2018-08-06T10:16:52.620Z,29.2
2018-08-06T10:17:57.775Z,29.6
2018-08-06T10:19:01.256Z,29.9
2018-08-06T10:20:21.175Z,29.3
2018-08-06T10:21:32.361Z,29.5
2018-08-06T10:22:41.588Z,29.4
2018-08-06T10:23:45.442Z,29.3
2018-08-06T10:25:05.872Z,29.5
2018-08-06T10:26:08.931Z,29.4
2018-08-06T10:27:14.196Z,29.5
2018-08-06T10:28:34.922Z,29.3
2018-08-06T10:29:37.363Z,29.3
2018-08-06T10:30:39.271Z,29.3
2018-08-06T10:31:43.445Z,29.1
2018-08-06T10:32:46.817Z,29
2018-08-06T10:33:50.250Z,29.3
2018-08-06T10:34:51.467Z,29.5
2018-08-06T10:35:55.659Z,29.1
2018-08-06T10:36:58.818Z,28.7
2018-08-06T10:38:04.569Z,28.7
2018-08-06T10:39:06.969Z,28.6
2018-08-06T10:40:14.767Z,29.1
2018-08-06T10:41:19.742Z,29
2018-08-06T10:42:28.650Z,28.9
2018-08-06T10:43:31.174Z,28.8
2018-08-06T10:44:35.661Z,28.4
2018-08-06T10:45:40.371Z,28.3
2018-08-06T10:46:41.636Z,28.2
2018-08-06T10:47:42.873Z,28.4
2018-08-06T10:48:45.179Z,28.2
2018-08-06T10:49:47.026Z,28.5
2018-08-06T10:50:48.542Z,28.7
2018-08-06T10:51:54.744Z,28.6
2018-08-06T10:52:58.939Z,28.8
2018-08-06T10:54:00.224Z,28.9
2018-08-06T10:55:04.515Z,29.1
2018-08-06T10:56:20.668Z,29
2018-08-06T10:57:21.920Z,29.1
2018-08-06T10:58:23.116Z,29.1
2018-08-06T10:59:24.375Z,29.2
2018-08-06T11:00:25.746Z,29.2
2018-08-06T11:01:28.933Z,29.2
2018-08-06T11:02:32.737Z,29.2
2018-08-06T11:03:35.564Z,29
2018-08-06T11:04:44.800Z,29.1
2018-08-06T11:05:48.493Z,29.2
2018-08-06T11:06:49.722Z,29.2
2018-08-06T11:07:55.672Z,29
2018-08-06T11:08:57.124Z,29.3
2018-08-06T11:09:58.355Z,29.2
2018-08-06T11:11:02.232Z,29
2018-08-06T11:12:06.200Z,29
2018-08-06T11:13:12.485Z,28.6
2018-08-06T11:14:16.341Z,28.8
2018-08-06T11:15:17.593Z,29
2018-08-06T11:16:21.327Z,29
2018-08-06T11:17:22.536Z,29
2018-08-06T11:18:28.718Z,28.9
2018-08-06T11:19:30.978Z,29.1
2018-08-06T11:20:32.304Z,28.8
2018-08-06T11:21:33.443Z,29
2018-08-06T11:22:34.640Z,29.2
2018-08-06T11:23:38.054Z,29.1
2018-08-06T11:24:39.387Z,29.1
2018-08-06T11:25:40.613Z,29.1
2018-08-06T11:26:41.797Z,29
2018-08-06T11:27:43.011Z,28.9
2018-08-06T11:28:44.242Z,28.6
2018-08-06T11:29:48.658Z,28.9
2018-08-06T11:30:52.295Z,28.9
2018-08-06T11:31:54.018Z,28.7
2018-08-06T11:32:55.223Z,29
2018-08-06T11:33:56.553Z,28.9
2018-08-06T11:34:57.837Z,28.7
2018-08-06T11:35:59.140Z,28.9
2018-08-06T11:37:00.339Z,29
2018-08-06T11:38:04.546Z,29.1
2018-08-06T11:39:05.854Z,29.3
2018-08-06T11:40:07.274Z,29.2
2018-08-06T11:41:08.556Z,29.1
2018-08-06T11:42:09.792Z,28.7
2018-08-06T11:43:13.239Z,28.7
2018-08-06T11:44:14.488Z,28.6
2018-08-06T11:45:15.823Z,28.7
2018-08-06T11:46:17.235Z,28.6
2018-08-06T11:47:18.462Z,28.8
2018-08-06T11:48:21.273Z,28.8
2018-08-06T11:49:22.573Z,28.8
2018-08-06T11:50:30.994Z,28.9
2018-08-06T11:51:33.016Z,28.9
2018-08-06T11:52:38.446Z,29.1
2018-08-06T11:53:40.606Z,29.1
2018-08-06T11:54:41.876Z,29.1
2018-08-06T11:55:43.279Z,29.1
2018-08-06T11:56:44.663Z,29.2
2018-08-06T11:57:50.350Z,28.6
2018-08-06T11:58:55.633Z,28.7
2018-08-06T11:59:57.348Z,28.8
2018-08-06T12:01:01.110Z,29
2018-08-06T12:02:04.965Z,28.6
2018-08-06T12:03:10.942Z,28.8
2018-08-06T12:04:12.287Z,28.8
2018-08-06T12:05:13.595Z,28.9
2018-08-06T12:06:14.960Z,28.6
2018-08-06T12:07:19.643Z,28.8
2018-08-06T12:08:21.253Z,29
2018-08-06T12:09:22.486Z,28.9
2018-08-06T12:10:23.725Z,29
2018-08-06T12:11:29.940Z,29
2018-08-06T12:12:47.838Z,28.9
2018-08-06T12:13:59.684Z,28.7
2018-08-06T12:15:01.354Z,28.8
2018-08-06T12:16:03.959Z,29
2018-08-06T12:17:05.407Z,29.1
2018-08-06T12:18:10.796Z,29
2018-08-06T12:19:16.113Z,29
2018-08-06T12:20:18.220Z,29.1
2018-08-06T12:21:22.802Z,29.2
2018-08-06T12:22:26.137Z,28.9
2018-08-06T12:23:27.400Z,28.8
2018-08-06T12:24:28.646Z,28.8
2018-08-06T12:25:29.880Z,28.8
2018-08-06T12:26:31.139Z,29
2018-08-06T12:27:32.337Z,29
2018-08-06T12:28:33.568Z,29.1
2018-08-06T12:29:37.175Z,29.2
2018-08-06T12:30:38.395Z,29.1
2018-08-06T12:31:39.735Z,29
2018-08-06T12:32:41.014Z,29
2018-08-06T12:33:42.292Z,29.1
2018-08-06T12:34:43.592Z,29.1
2018-08-06T12:35:52.420Z,29.2
2018-08-06T12:36:53.764Z,29.1
2018-08-06T12:37:56.101Z,29
2018-08-06T12:38:57.331Z,28.9
2018-08-06T12:39:58.578Z,28.9
2018-08-06T12:40:59.870Z,29.1
2018-08-06T12:42:03.568Z,29.1
2018-08-06T12:43:06.169Z,29.2
2018-08-06T12:44:07.477Z,29.1
2018-08-06T12:45:08.837Z,29
2018-08-06T12:46:10.274Z,29.1
2018-08-06T12:47:11.477Z,29
2018-08-06T12:48:15.724Z,29.1
2018-08-06T12:49:22.025Z,29.1
2018-08-06T12:50:25.927Z,29.2
2018-08-06T12:51:29.422Z,29.3
2018-08-06T12:52:35.767Z,29.2
2018-08-06T12:53:41.444Z,29.2
2018-08-06T12:54:42.711Z,29.1
2018-08-06T12:55:48.053Z,29.1
2018-08-06T12:56:49.330Z,29.2
2018-08-06T12:57:53.322Z,29.3
2018-08-06T12:58:56.774Z,29.3
2018-08-06T12:59:57.971Z,29.2
2018-08-06T13:00:59.117Z,29.1
2018-08-06T13:02:03.086Z,29
2018-08-06T13:03:04.749Z,29.2
2018-08-06T13:04:08.834Z,29.3
2018-08-06T13:05:12.910Z,29.3
2018-08-06T13:06:19.556Z,29.1
2018-08-06T13:07:20.730Z,29.1
2018-08-06T13:08:22.076Z,29.1
2018-08-06T13:09:25.701Z,29.2
2018-08-06T13:10:27.021Z,29.4
2018-08-06T13:11:28.294Z,29.3
2018-08-06T13:12:33.885Z,29.4
2018-08-06T13:13:38.582Z,29.3
2018-08-06T13:14:39.795Z,29.4
2018-08-06T13:15:43.993Z,29.4
2018-08-06T13:16:45.275Z,29.2
2018-08-06T13:17:49.750Z,29.1
2018-08-06T13:18:51.007Z,29.2
2018-08-06T13:19:52.371Z,29.3
2018-08-06T13:20:53.731Z,29.3
2018-08-06T13:21:54.996Z,29.4
2018-08-06T13:22:56.236Z,29.3
2018-08-06T13:23:59.356Z,29.4
2018-08-06T13:25:03.580Z,29.5
2018-08-06T13:26:07.608Z,29.2
2018-08-06T13:27:08.993Z,29.2
2018-08-06T13:28:11.497Z,29.2
2018-08-06T13:29:19.971Z,29.3
2018-08-06T13:30:23.639Z,29.4
2018-08-06T13:31:27.356Z,29.4
2018-08-06T13:32:30.322Z,29.3
2018-08-06T13:33:31.577Z,29.4
2018-08-06T13:34:33.207Z,29.4
2018-08-06T13:35:45.205Z,29.4
2018-08-06T13:36:49.446Z,29.2
2018-08-06T13:37:50.936Z,29.1
2018-08-06T13:38:58.385Z,29.2
2018-08-06T13:40:09.058Z,29.3
2018-08-06T13:41:36.318Z,29.4
2018-08-06T13:42:37.630Z,29.2
2018-08-06T13:43:40.620Z,29.1
2018-08-06T13:44:47.214Z,29.2
2018-08-06T13:45:50.226Z,29.2
2018-08-06T13:46:54.427Z,29.3
2018-08-06T13:47:57.713Z,29.3
2018-08-06T13:48:59.412Z,29.3
2018-08-06T13:50:01.156Z,29.4
2018-08-06T13:51:03.065Z,29.3
2018-08-06T13:52:08.920Z,29.4
2018-08-06T13:53:10.481Z,29.4
2018-08-06T13:54:14.707Z,29.5
2018-08-06T13:55:17.369Z,29.5
2018-08-06T13:56:18.652Z,29.4
2018-08-06T13:57:19.826Z,29.4
2018-08-06T13:58:23.678Z,29.4
2018-08-06T13:59:25.779Z,29.4
2018-08-06T14:00:27.080Z,29.4
2018-08-06T14:01:28.279Z,29.5
2018-08-06T14:02:29.518Z,29.4
2018-08-06T14:03:30.994Z,29.5
2018-08-06T14:04:32.216Z,29.4
2018-08-06T14:05:33.636Z,29.5
2018-08-06T14:06:35.086Z,29.4